Time;durP1;ratioP1;P1;durP2;ratioP2;P2;SDS_P1;SDS_P2;PMS_P1;PMS_P2;Temp;Humidity;BMP_temperature;BMP_pressure;BME280_temperature;BME280_humidity;BME280_pressure;Samples;Min_cycle;Max_cycle;Signal;HPM_P1;HPM_P2
2022/03/26 00:01:37;;;;;;;32.88;16.55;;;;;;;9.66;54.79;103054.59;7396554;19;20022;-61
2022/03/26 00:04:06;;;;;;;33.60;16.42;;;;;;;9.69;54.88;103058.06;7393281;19;20026;-63
2022/03/26 00:06:38;;;;;;;30.98;16.75;;;;;;;9.57;55.26;103054.63;7394008;19;20015;-58
2022/03/26 00:09:07;;;;;;;29.55;15.88;;;;;;;9.53;55.37;103048.53;7392804;19;20471;-63
2022/03/26 00:11:35;;;;;;;29.95;16.63;;;;;;;9.64;55.12;103062.47;7393548;19;20454;-62
2022/03/26 00:14:04;;;;;;;34.55;16.60;;;;;;;9.58;55.39;103064.22;7396244;19;20018;-64
2022/03/26 00:16:34;;;;;;;33.10;16.63;;;;;;;9.59;55.34;103064.22;7394554;19;20011;-64
2022/03/26 00:19:03;;;;;;;33.47;17.13;;;;;;;9.58;55.26;103065.06;7394658;19;20541;-59
2022/03/26 00:21:32;;;;;;;30.42;16.58;;;;;;;9.58;55.43;103062.47;7393301;19;20046;-64
2022/03/26 00:24:04;;;;;;;31.20;16.67;;;;;;;9.64;55.12;103064.19;7392576;19;20025;-61
2022/03/26 00:26:33;;;;;;;30.45;17.05;;;;;;;9.47;55.53;103061.63;7393865;19;20023;-61
2022/03/26 00:29:02;;;;;;;31.58;16.63;;;;;;;9.42;55.55;103066.88;7392861;19;20011;-61
2022/03/26 00:31:33;;;;;;;31.88;17.45;;;;;;;9.36;56.25;103061.69;7391396;19;20018;-60
2022/03/26 00:34:02;;;;;;;36.40;16.42;;;;;;;9.31;56.25;103066.03;7392746;19;20021;-60
2022/03/26 00:36:31;;;;;;;35.05;17.70;;;;;;;9.33;56.12;103070.41;7390620;19;20052;-60
2022/03/26 00:39:00;;;;;;;30.63;16.70;;;;;;;9.35;56.06;103065.16;7392897;19;20018;-61
2022/03/26 00:41:32;;;;;;;30.42;17.00;;;;;;;9.30;56.20;103064.31;7390275;19;20023;-60
2022/03/26 00:44:02;;;;;;;37.22;17.42;;;;;;;9.15;56.53;103062.59;7388263;19;20620;-61
2022/03/26 00:46:31;;;;;;;37.50;17.65;;;;;;;9.13;56.82;103059.13;7391914;19;20029;-58
2022/03/26 00:48:59;;;;;;;37.10;17.83;;;;;;;9.11;56.79;103058.25;7396783;19;20022;-59
2022/03/26 00:51:29;;;;;;;35.15;18.17;;;;;;;9.27;56.76;103067.81;7394882;19;20010;-62
2022/03/26 00:53:57;;;;;;;32.17;17.55;;;;;;;9.17;56.85;103055.63;7395896;19;20014;-60
2022/03/26 00:56:26;;;;;;;38.42;18.17;;;;;;;9.16;56.85;103059.97;7394483;19;20029;-59
2022/03/26 00:58:58;;;;;;;34.05;18.20;;;;;;;9.13;56.81;103056.50;7397518;19;20025;-58
2022/03/26 01:01:27;;;;;;;35.13;17.75;;;;;;;9.10;57.02;103061.75;7394461;19;20364;-58
2022/03/26 01:03:56;;;;;;;35.50;18.30;;;;;;;9.08;57.40;103060.88;7396198;19;20085;-62
2022/03/26 01:06:25;;;;;;;37.70;18.23;;;;;;;9.08;57.24;103063.47;7391599;19;20019;-60
2022/03/26 01:08:54;;;;;;;32.33;18.33;;;;;;;9.08;57.30;103063.47;7394029;19;20474;-59
2022/03/26 01:11:23;;;;;;;36.75;18.58;;;;;;;9.06;57.47;103054.78;7392475;19;20021;-60
2022/03/26 01:13:56;;;;;;;40.45;19.02;;;;;;;9.00;57.38;103063.50;7391502;19;20018;-60
2022/03/26 01:16:30;;;;;;;33.95;18.58;;;;;;;9.00;57.46;103058.28;7390927;19;20015;-57
2022/03/26 01:18:59;;;;;;;31.25;18.17;;;;;;;8.92;57.68;103060.03;7393115;19;20118;-56
2022/03/26 01:21:28;;;;;;;34.75;18.77;;;;;;;8.99;57.29;103062.63;7390877;19;20014;-60
2022/03/26 01:23:57;;;;;;;34.38;18.75;;;;;;;8.79;57.83;103056.56;7391029;19;20356;-61
2022/03/26 01:26:26;;;;;;;34.08;18.02;;;;;;;8.80;57.97;103051.31;7389877;19;20022;-56
2022/03/26 01:28:55;;;;;;;36.00;19.67;;;;;;;8.89;57.72;103055.66;7390878;19;20015;-60
2022/03/26 01:31:23;;;;;;;36.65;19.60;;;;;;;8.86;57.96;103046.97;7390666;19;20362;-60
2022/03/26 01:33:55;;;;;;;39.22;19.90;;;;;;;8.80;58.02;103045.22;7391563;19;20014;-57
2022/03/26 01:36:24;;;;;;;34.63;19.83;;;;;;;8.78;58.34;103047.84;7393117;19;20016;-58
2022/03/26 01:38:53;;;;;;;32.10;18.80;;;;;;;8.82;58.37;103052.16;7390598;19;20426;-55
2022/03/26 01:41:23;;;;;;;39.35;20.70;;;;;;;8.73;58.46;103052.19;7386428;19;20049;-59
2022/03/26 01:43:51;;;;;;;33.35;19.60;;;;;;;8.64;58.68;103050.47;7384674;19;20022;-55
2022/03/26 01:46:22;;;;;;;41.10;20.27;;;;;;;8.59;58.46;103043.50;7385393;19;20025;-57
2022/03/26 01:48:55;;;;;;;36.85;20.58;;;;;;;8.60;58.51;103053.06;7390210;19;20019;-59
2022/03/26 01:51:24;;;;;;;35.78;19.38;;;;;;;8.57;58.77;103050.47;7390325;19;20018;-60
2022/03/26 01:53:55;;;;;;;38.78;20.02;;;;;;;8.56;58.48;103046.09;7390351;19;20018;-57
2022/03/26 01:56:25;;;;;;;33.80;20.52;;;;;;;8.46;58.88;103042.63;7388396;19;20010;-59
2022/03/26 01:58:54;;;;;;;39.38;20.88;;;;;;;8.54;58.56;103040.88;7389213;19;20026;-60
2022/03/26 02:01:27;;;;;;;37.25;20.13;;;;;;;8.47;58.74;103047.84;7390086;19;20030;-60
2022/03/26 02:03:58;;;;;;;32.63;18.92;;;;;;;8.52;58.77;103049.59;7389716;19;20463;-60
2022/03/26 02:06:31;;;;;;;38.90;20.80;;;;;;;8.45;59.18;103048.69;7387675;19;20029;-59
2022/03/26 02:09:00;;;;;;;38.80;20.42;;;;;;;8.41;59.14;103039.97;7391784;19;20014;-60
2022/03/26 02:11:33;;;;;;;39.55;20.70;;;;;;;8.41;58.86;103041.69;7389245;19;20521;-60
2022/03/26 02:14:03;;;;;;;39.33;20.35;;;;;;;8.37;58.71;103047.78;7389301;19;20517;-59
2022/03/26 02:16:33;;;;;;;39.22;20.95;;;;;;;8.23;59.09;103040.81;7388204;19;20014;-59
2022/03/26 02:19:06;;;;;;;36.55;21.33;;;;;;;8.29;59.05;103046.03;7388486;19;20511;-60
2022/03/26 02:21:38;;;;;;;36.15;19.77;;;;;;;8.41;58.95;103036.47;7389425;19;20007;-60
2022/03/26 02:24:09;;;;;;;37.70;20.48;;;;;;;8.43;59.10;103035.59;7389713;19;20019;-59
2022/03/26 02:26:39;;;;;;;41.70;20.73;;;;;;;8.46;58.82;103043.47;7387208;19;20026;-60
2022/03/26 02:29:10;;;;;;;36.03;20.85;;;;;;;8.39;58.75;103041.69;7387854;19;20033;-58
2022/03/26 02:31:40;;;;;;;41.30;21.88;;;;;;;8.41;58.64;103042.59;7390742;19;20037;-59
2022/03/26 02:34:10;;;;;;;38.10;21.55;;;;;;;8.35;58.38;103041.69;7390607;19;20011;-60
2022/03/26 02:36:41;;;;;;;40.28;21.52;;;;;;;8.20;58.95;103043.41;7388618;19;20026;-61
2022/03/26 02:39:10;;;;;;;44.58;22.00;;;;;;;8.17;58.81;103043.41;7388899;19;20122;-62
2022/03/26 02:41:39;;;;;;;37.30;21.10;;;;;;;8.20;58.64;103050.41;7392278;19;20015;-61
2022/03/26 02:44:09;;;;;;;45.00;22.92;;;;;;;8.13;58.91;103046.91;7389157;19;20514;-58
2022/03/26 02:46:39;;;;;;;40.30;21.83;;;;;;;8.09;58.54;103047.75;7388145;19;20026;-60
2022/03/26 02:49:08;;;;;;;38.95;21.60;;;;;;;8.08;58.69;103046.91;7388338;19;20013;-60
2022/03/26 02:51:37;;;;;;;44.67;22.42;;;;;;;8.07;58.87;103044.28;7391752;19;20497;-60
2022/03/26 02:54:18;;;;;;;39.83;22.42;;;;;;;8.17;59.02;103040.81;7396110;19;20011;-60
2022/03/26 02:56:47;;;;;;;41.42;22.58;;;;;;;8.18;58.75;103039.06;7394091;19;20491;-60
2022/03/26 02:59:17;;;;;;;45.00;24.02;;;;;;;8.12;58.57;103042.53;7396307;19;20077;-60
2022/03/26 03:01:46;;;;;;;43.60;24.23;;;;;;;8.14;59.00;103036.44;7399086;19;20011;-60
2022/03/26 03:04:16;;;;;;;46.75;25.15;;;;;;;8.19;58.47;103046.03;7396554;19;20019;-61
2022/03/26 03:06:45;;;;;;;48.15;25.30;;;;;;;8.12;58.42;103038.19;7393626;19;20026;-60
2022/03/26 03:09:17;;;;;;;48.75;26.27;;;;;;;8.12;58.63;103040.81;7395294;19;20014;-58
2022/03/26 03:11:46;;;;;;;44.58;23.55;;;;;;;8.08;58.42;103043.38;7389362;19;20014;-61
2022/03/26 03:14:15;;;;;;;41.83;22.58;;;;;;;8.12;58.62;103043.41;7391405;19;20029;-61
2022/03/26 03:16:45;;;;;;;42.28;22.58;;;;;;;8.15;58.37;103042.53;7390265;19;20015;-60
2022/03/26 03:19:14;;;;;;;42.63;23.05;;;;;;;7.97;58.67;103038.16;7394274;19;20019;-59
2022/03/26 03:21:43;;;;;;;44.00;24.67;;;;;;;8.02;59.05;103044.25;7394369;19;20019;-59
2022/03/26 03:24:12;;;;;;;44.85;24.13;;;;;;;7.91;58.87;103044.22;7395026;19;20029;-61
2022/03/26 03:26:43;;;;;;;43.55;23.90;;;;;;;8.03;59.00;103045.13;7392353;19;20328;-59
2022/03/26 03:29:12;;;;;;;44.22;23.77;;;;;;;8.09;58.45;103043.38;7396016;19;20018;-60
2022/03/26 03:31:44;;;;;;;49.00;26.38;;;;;;;8.04;58.50;103044.25;7392611;19;20603;-61
2022/03/26 03:34:13;;;;;;;42.35;23.40;;;;;;;8.07;58.18;103046.88;7395744;19;20550;-59
2022/03/26 03:36:42;;;;;;;45.55;24.13;;;;;;;7.97;58.33;103048.59;7392701;19;20427;-60
2022/03/26 03:39:11;;;;;;;42.72;24.30;;;;;;;7.96;58.67;103046.84;7393740;19;20025;-60
2022/03/26 03:41:43;;;;;;;46.25;24.52;;;;;;;7.96;58.28;103039.03;7393347;19;20015;-59
2022/03/26 03:44:12;;;;;;;45.45;24.65;;;;;;;7.97;58.76;103043.38;7394682;19;20017;-59
2022/03/26 03:46:41;;;;;;;45.13;24.48;;;;;;;7.92;58.64;103040.75;7391690;19;20359;-59
2022/03/26 03:49:10;;;;;;;48.55;25.40;;;;;;;8.02;58.67;103046.84;7392400;19;20458;-60
2022/03/26 03:51:39;;;;;;;46.00;25.33;;;;;;;7.91;58.67;103043.38;7391146;19;20467;-60
2022/03/26 03:54:08;;;;;;;45.88;25.08;;;;;;;7.89;59.16;103043.34;7393568;19;20021;-59
2022/03/26 03:56:37;;;;;;;46.38;25.13;;;;;;;7.82;59.31;103035.50;7391064;19;20483;-57
2022/03/26 03:59:09;;;;;;;48.08;25.35;;;;;;;7.84;59.93;103039.88;7393502;19;20396;-60
2022/03/26 04:01:38;;;;;;;50.83;24.70;;;;;;;7.90;59.52;103039.88;7395423;19;20014;-59
2022/03/26 04:04:07;;;;;;;48.47;25.35;;;;;;;7.91;59.69;103043.38;7390937;19;20018;-58
2022/03/26 04:06:35;;;;;;;48.08;26.05;;;;;;;7.91;59.37;103043.38;7391674;19;20014;-60
2022/03/26 04:09:05;;;;;;;51.38;26.30;;;;;;;7.92;59.74;103045.09;7392423;19;20014;-60
2022/03/26 04:11:34;;;;;;;48.28;26.05;;;;;;;7.85;60.23;103049.44;7390605;19;20026;-59
2022/03/26 04:14:02;;;;;;;49.75;25.95;;;;;;;7.91;59.76;103046.84;7391812;19;20046;-60
2022/03/26 04:16:34;;;;;;;49.28;26.73;;;;;;;7.97;59.26;103049.47;7393857;19;20021;-58
2022/03/26 04:19:03;;;;;;;49.15;26.98;;;;;;;7.93;59.77;103049.47;7392135;19;20019;-58
2022/03/26 04:21:32;;;;;;;52.35;27.15;;;;;;;7.82;60.59;103056.38;7392857;19;20026;-59
2022/03/26 04:24:02;;;;;;;50.28;26.17;;;;;;;7.84;60.11;103052.03;7392519;19;20022;-61
2022/03/26 04:26:31;;;;;;;54.30;29.42;;;;;;;7.72;60.16;103051.16;7393908;19;20022;-61
2022/03/26 04:29:00;;;;;;;54.60;29.52;;;;;;;7.62;60.63;103058.06;7392380;19;20483;-59
2022/03/26 04:31:30;;;;;;;60.20;31.58;;;;;;;7.74;60.67;103051.16;7389734;19;20110;-59
2022/03/26 04:34:01;;;;;;;59.85;30.75;;;;;;;7.76;60.34;103060.69;7392188;19;20017;-59
2022/03/26 04:36:30;;;;;;;57.17;31.52;;;;;;;7.77;60.46;103059.84;7389793;19;20550;-59
2022/03/26 04:38:59;;;;;;;58.97;32.80;;;;;;;7.83;60.72;103059.00;7392393;19;20014;-60
2022/03/26 04:41:28;;;;;;;64.07;32.58;;;;;;;7.79;60.63;103065.97;7395260;19;20015;-59
2022/03/26 04:43:57;;;;;;;60.40;33.50;;;;;;;7.71;61.44;103059.84;7391380;19;20022;-59
2022/03/26 04:46:27;;;;;;;58.50;32.55;;;;;;;7.83;61.17;103065.97;7390455;19;20010;-57
2022/03/26 04:48:56;;;;;;;61.80;32.65;;;;;;;7.83;61.02;103063.34;7391676;19;20054;-60
2022/03/26 04:51:27;;;;;;;59.55;31.77;;;;;;;7.83;60.82;103069.44;7389678;19;20019;-59
2022/03/26 04:53:56;;;;;;;54.58;30.60;;;;;;;7.79;61.00;103062.44;7391129;19;20014;-59
2022/03/26 04:56:25;;;;;;;60.88;31.83;;;;;;;7.80;60.97;103065.06;7389776;19;20434;-59
2022/03/26 04:58:55;;;;;;;54.88;30.77;;;;;;;7.59;61.93;103060.66;7390840;19;20018;-58
2022/03/26 05:01:24;;;;;;;55.47;30.88;;;;;;;7.37;62.32;103061.41;7392441;19;20415;-59
2022/03/26 05:03:53;;;;;;;60.38;31.88;;;;;;;7.36;62.54;103064.88;7392185;19;20017;-59
2022/03/26 05:06:22;;;;;;;58.08;31.48;;;;;;;7.36;62.97;103067.47;7390679;19;20023;-59
2022/03/26 05:08:53;;;;;;;59.22;30.83;;;;;;;7.57;62.33;103067.59;7391951;19;20015;-58
2022/03/26 05:11:22;;;;;;;62.13;34.78;;;;;;;7.57;62.32;103071.94;7389830;19;20378;-57
2022/03/26 05:13:52;;;;;;;69.05;35.67;;;;;;;7.43;62.57;103067.50;7392862;19;20011;-58
2022/03/26 05:16:21;;;;;;;57.20;32.28;;;;;;;7.34;62.99;103059.66;7390212;19;20783;-59
2022/03/26 05:18:50;;;;;;;63.03;34.35;;;;;;;7.35;62.98;103063.13;7391122;19;20019;-60
2022/03/26 05:21:19;;;;;;;62.33;32.47;;;;;;;7.41;62.67;103064.03;7390721;19;20478;-60
2022/03/26 05:23:48;;;;;;;62.55;33.22;;;;;;;7.69;61.61;103074.59;7391493;19;20015;-59
2022/03/26 05:26:22;;;;;;;66.63;35.67;;;;;;;7.66;62.10;103074.59;7390340;19;20029;-59
2022/03/26 05:28:52;;;;;;;61.95;34.13;;;;;;;7.59;62.80;103073.69;7392537;19;20015;-61
2022/03/26 05:31:21;;;;;;;64.20;34.42;;;;;;;7.40;63.39;103077.06;7394137;19;20479;-56
2022/03/26 05:33:50;;;;;;;66.03;34.78;;;;;;;7.18;64.34;103071.72;7392984;19;20022;-59
2022/03/26 05:36:19;;;;;;;68.93;34.75;;;;;;;7.21;63.97;103073.50;7392307;19;20034;-61
2022/03/26 05:38:48;;;;;;;63.72;35.45;;;;;;;7.43;63.24;103077.94;7394478;19;20021;-59
2022/03/26 05:41:19;;;;;;;61.25;32.67;;;;;;;7.61;62.74;103078.94;7392145;19;20022;-59
2022/03/26 05:43:48;;;;;;;66.50;34.55;;;;;;;7.62;63.12;103083.25;7391107;19;20021;-58
2022/03/26 05:46:17;;;;;;;65.97;35.25;;;;;;;7.52;63.02;103084.97;7390673;19;20019;-60
2022/03/26 05:48:46;;;;;;;75.47;36.72;;;;;;;7.49;63.34;103086.69;7390066;19;20021;-60
2022/03/26 05:51:14;;;;;;;109.40;38.22;;;;;;;7.65;62.85;103082.41;7388904;19;20340;-56
2022/03/26 05:53:44;;;;;;;77.03;37.95;;;;;;;7.63;62.91;103087.63;7391065;19;20506;-56
2022/03/26 05:56:15;;;;;;;69.63;36.17;;;;;;;7.53;63.24;103093.66;7389774;19;20534;-58
2022/03/26 05:58:46;;;;;;;74.90;37.60;;;;;;;7.46;63.76;103087.53;7389764;19;20018;-58
2022/03/26 06:01:15;;;;;;;73.30;38.25;;;;;;;7.55;63.41;103086.69;7390717;19;20021;-59
2022/03/26 06:03:44;;;;;;;73.50;38.13;;;;;;;7.48;63.28;103101.47;7393156;19;20027;-58
2022/03/26 06:06:13;;;;;;;74.22;40.13;;;;;;;7.37;63.62;103098.78;7394249;19;20015;-57
2022/03/26 06:08:42;;;;;;;67.88;38.47;;;;;;;7.36;63.82;103106.59;7394768;19;20018;-59
2022/03/26 06:11:11;;;;;;;73.90;37.53;;;;;;;7.32;63.79;103102.22;7413447;19;20018;-59
2022/03/26 06:13:40;;;;;;;71.15;38.55;;;;;;;7.37;64.04;103103.16;7405461;19;20019;-61
2022/03/26 06:16:11;;;;;;;71.80;39.30;;;;;;;7.40;63.91;103108.38;7389361;19;20324;-60
2022/03/26 06:18:41;;;;;;;72.20;40.17;;;;;;;7.38;64.11;103105.75;7388698;19;20021;-61
2022/03/26 06:21:10;;;;;;;76.95;39.67;;;;;;;7.30;64.18;103104.81;7391748;19;20014;-60
2022/03/26 06:23:39;;;;;;;74.05;39.50;;;;;;;7.36;64.33;103119.66;7386605;19;20083;-57
2022/03/26 06:26:08;;;;;;;75.22;39.97;;;;;;;7.26;64.55;103127.44;7385449;19;20535;-60
2022/03/26 06:28:37;;;;;;;77.78;39.78;;;;;;;7.26;64.81;103121.31;7388651;19;20042;-59
2022/03/26 06:31:08;;;;;;;77.75;39.60;;;;;;;7.32;64.70;103126.59;7387338;19;20341;-59
2022/03/26 06:33:40;;;;;;;69.90;38.38;;;;;;;7.41;64.43;103124.03;7385649;19;20011;-59
2022/03/26 06:36:09;;;;;;;72.32;38.33;;;;;;;7.34;64.78;103116.16;7364150;19;20022;-57
2022/03/26 06:38:38;;;;;;;74.22;39.13;;;;;;;7.50;64.41;103115.38;7388600;19;20010;-58
2022/03/26 06:41:09;;;;;;;71.35;39.72;;;;;;;7.59;64.16;103125.00;7387738;19;20068;-58
2022/03/26 06:43:39;;;;;;;74.80;40.58;;;;;;;7.63;63.82;103125.00;7387886;19;20015;-59
2022/03/26 06:46:08;;;;;;;76.13;40.13;;;;;;;7.86;63.49;103121.66;7387339;19;20010;-55
2022/03/26 06:48:40;;;;;;;73.72;39.55;;;;;;;7.94;63.05;103121.69;7388713;19;20018;-58
2022/03/26 06:51:10;;;;;;;73.38;39.58;;;;;;;7.95;63.15;103124.31;7386934;19;20018;-58
2022/03/26 06:53:39;;;;;;;71.93;39.45;;;;;;;7.91;63.01;103122.53;7388069;19;20090;-58
2022/03/26 06:56:08;;;;;;;78.22;40.10;;;;;;;7.95;63.12;103118.19;7387438;19;20021;-55
2022/03/26 06:58:38;;;;;;;77.53;44.03;;;;;;;8.17;62.58;103113.03;7388031;19;20014;-60
2022/03/26 07:01:07;;;;;;;70.10;37.83;;;;;;;8.38;62.25;103118.34;7388834;19;20471;-58
2022/03/26 07:03:36;;;;;;;70.80;39.83;;;;;;;8.45;61.80;103116.63;7388023;19;20014;-58
2022/03/26 07:06:07;;;;;;;73.32;39.25;;;;;;;8.39;62.18;103113.97;7386841;19;20022;-56
2022/03/26 07:08:36;;;;;;;63.88;37.08;;;;;;;8.48;62.36;103127.09;7388234;19;20100;-58
2022/03/26 07:11:05;;;;;;;73.55;37.67;;;;;;;8.54;62.40;103127.13;7389071;19;20018;-59
2022/03/26 07:13:34;;;;;;;71.72;36.53;;;;;;;8.65;62.30;103130.63;7387457;19;20061;-59
2022/03/26 07:16:02;;;;;;;69.95;38.67;;;;;;;8.86;61.95;103125.41;7388573;19;20011;-58
2022/03/26 07:18:31;;;;;;;79.30;37.40;;;;;;;9.01;61.25;103133.22;7388622;19;20022;-60
2022/03/26 07:21:00;;;;;;;66.70;36.20;;;;;;;9.05;61.33;103134.09;7363764;19;20010;-56
2022/03/26 07:23:32;;;;;;;63.17;36.28;;;;;;;9.17;60.99;103131.50;7387240;19;20011;-59
2022/03/26 07:26:01;;;;;;;66.03;36.70;;;;;;;9.26;60.48;103133.22;7385998;19;20018;-58
2022/03/26 07:28:29;;;;;;;68.57;35.45;;;;;;;9.32;60.20;103133.19;7391780;19;20014;-55
2022/03/26 07:30:58;;;;;;;66.88;34.97;;;;;;;9.35;60.27;103141.91;7386644;19;20443;-59
2022/03/26 07:33:27;;;;;;;63.67;34.90;;;;;;;9.50;59.55;103141.00;7387237;19;20011;-58
2022/03/26 07:35:56;;;;;;;60.08;34.38;;;;;;;9.61;59.82;103140.09;7386230;19;20025;-59
2022/03/26 07:38:25;;;;;;;62.22;33.63;;;;;;;9.72;58.95;103145.31;7393446;19;20026;-59
2022/03/26 07:40:57;;;;;;;61.63;34.35;;;;;;;9.79;58.25;103147.06;7394151;19;20502;-59
2022/03/26 07:43:26;;;;;;;78.28;34.47;;;;;;;9.92;58.13;103148.72;7395034;19;20010;-58
2022/03/26 07:45:55;;;;;;;58.67;33.20;;;;;;;10.05;57.83;103146.94;7396760;19;20014;-59
2022/03/26 07:48:24;;;;;;;62.13;34.55;;;;;;;10.18;57.72;103148.59;7398057;19;20478;-58
2022/03/26 07:50:53;;;;;;;60.28;33.83;;;;;;;10.32;56.72;103143.31;7393399;19;20141;-56
2022/03/26 07:53:22;;;;;;;63.90;34.55;;;;;;;10.52;56.50;103145.84;7391405;19;20015;-56
2022/03/26 07:55:51;;;;;;;68.60;36.35;;;;;;;10.66;56.39;103148.38;7393046;19;20078;-57
2022/03/26 07:58:23;;;;;;;62.30;35.22;;;;;;;10.74;55.83;103150.94;7394454;19;20040;-56
2022/03/26 08:00:51;;;;;;;62.83;34.67;;;;;;;10.83;55.93;103156.13;7395141;19;20426;-58
2022/03/26 08:03:20;;;;;;;61.38;34.72;;;;;;;11.04;55.27;103155.06;7393775;19;20022;-60
2022/03/26 08:05:49;;;;;;;61.38;33.67;;;;;;;11.07;54.94;103149.81;7392941;19;20034;-58
2022/03/26 08:08:18;;;;;;;61.70;34.00;;;;;;;11.16;55.51;103156.72;7395926;19;20032;-58
2022/03/26 08:10:47;;;;;;;61.95;33.05;;;;;;;11.27;55.34;103161.84;7416372;19;20017;-59
2022/03/26 08:13:17;;;;;;;61.92;32.70;;;;;;;11.37;55.28;103160.88;7392097;19;20010;-59
2022/03/26 08:15:48;;;;;;;59.58;31.80;;;;;;;11.53;54.98;103164.25;7403306;19;20011;-58
2022/03/26 08:18:17;;;;;;;58.10;33.05;;;;;;;11.62;54.34;103163.25;7392309;19;20059;-59
2022/03/26 08:20:46;;;;;;;60.33;32.97;;;;;;;11.72;54.70;103166.63;7392744;19;20010;-58
2022/03/26 08:23:15;;;;;;;58.28;32.75;;;;;;;11.86;54.22;103162.13;7393827;19;20014;-59
2022/03/26 08:28:26;;;;;;;54.58;30.83;;;;;;;12.01;54.14;103170.72;7391938;19;20373;-59
2022/03/26 08:30:57;;;;;;;58.83;32.30;;;;;;;12.09;53.12;103172.38;7392356;19;20018;-56
2022/03/26 08:33:26;;;;;;;53.45;30.95;;;;;;;12.24;53.49;103176.53;7393799;19;20014;-58
2022/03/26 08:35:55;;;;;;;53.53;30.40;;;;;;;12.37;53.56;103169.34;7391687;19;20023;-56
2022/03/26 08:38:24;;;;;;;51.67;28.65;;;;;;;12.48;52.89;103169.22;7396773;19;20010;-59
2022/03/26 08:40:53;;;;;;;44.75;26.95;;;;;;;12.78;51.96;103177.50;7392252;19;20018;-59
2022/03/26 08:43:22;;;;;;;47.67;26.40;;;;;;;12.87;51.99;103179.16;7393648;19;20022;-58
2022/03/26 08:45:51;;;;;;;51.08;27.58;;;;;;;13.06;51.93;103179.72;7394954;19;20014;-59
2022/03/26 08:48:22;;;;;;;34.83;20.00;;;;;;;13.23;50.86;103180.28;7391043;19;20457;-59
2022/03/26 08:50:51;;;;;;;42.45;22.15;;;;;;;13.34;50.51;103177.47;7391069;19;20018;-56
2022/03/26 08:53:20;;;;;;;38.20;22.05;;;;;;;13.41;50.83;103175.63;7390157;19;20022;-60
2022/03/26 08:55:50;;;;;;;36.50;20.55;;;;;;;13.43;50.12;103174.69;7390837;19;20018;-57
2022/03/26 08:58:20;;;;;;;35.35;20.75;;;;;;;13.55;49.53;103172.72;7392796;19;20022;-60
2022/03/26 09:00:51;;;;;;;37.83;20.98;;;;;;;13.73;49.54;103175.00;7392920;19;20053;-60
2022/03/26 09:03:24;;;;;;;35.47;19.73;;;;;;;13.76;49.81;103174.09;7395971;19;20018;-60
2022/03/26 09:05:54;;;;;;;36.92;19.98;;;;;;;13.91;49.33;103172.91;7389511;19;20010;-56
2022/03/26 09:08:23;;;;;;;34.80;19.90;;;;;;;14.09;49.34;103174.31;7392053;19;20044;-55
2022/03/26 09:10:52;;;;;;;32.65;19.58;;;;;;;14.22;49.06;103170.50;7390659;19;20010;-60
2022/03/26 09:13:21;;;;;;;33.55;19.85;;;;;;;14.34;49.02;103171.97;7390904;19;20192;-60
2022/03/26 09:15:50;;;;;;;30.45;18.60;;;;;;;14.35;49.08;103165.81;7390735;19;20632;-58
2022/03/26 09:18:21;;;;;;;29.20;18.83;;;;;;;14.42;48.75;103171.81;7393507;19;20504;-58
2022/03/26 09:20:52;;;;;;;28.50;16.73;;;;;;;14.58;49.26;103174.97;7390649;19;20408;-59
2022/03/26 09:23:21;;;;;;;31.45;16.95;;;;;;;14.68;48.21;103177.38;7391806;19;20018;-58
2022/03/26 09:25:50;;;;;;;24.67;15.00;;;;;;;14.70;49.10;103183.50;7390513;19;20050;-58
2022/03/26 09:28:19;;;;;;;24.70;14.90;;;;;;;14.70;49.55;103185.28;7391298;19;20022;-59
2022/03/26 09:30:50;;;;;;;21.85;15.25;;;;;;;14.87;49.45;103182.22;7390761;19;20017;-59
2022/03/26 09:33:18;;;;;;;26.50;15.75;;;;;;;14.86;49.19;103188.41;7390363;19;20052;-58
2022/03/26 09:35:47;;;;;;;27.20;16.08;;;;;;;15.06;49.47;103193.22;7393233;19;20023;-59
2022/03/26 09:38:19;;;;;;;22.17;14.82;;;;;;;15.14;49.43;103183.28;7390858;19;20010;-59
2022/03/26 09:40:48;;;;;;;27.02;14.25;;;;;;;15.16;49.64;103192.06;7390409;19;20021;-55
2022/03/26 09:43:17;;;;;;;24.23;15.45;;;;;;;15.23;48.81;103190.13;7390983;19;20015;-58
2022/03/26 09:45:46;;;;;;;28.50;15.60;;;;;;;15.35;49.31;103188.94;7389909;19;20037;-59
2022/03/26 09:48:15;;;;;;;26.15;16.88;;;;;;;15.38;48.66;103187.06;7389465;19;20026;-59
2022/03/26 09:50:45;;;;;;;21.85;14.73;;;;;;;15.43;48.60;103181.69;7390182;19;20037;-57
2022/03/26 09:53:14;;;;;;;24.45;15.35;;;;;;;15.47;48.64;103185.09;7388332;19;20057;-60
2022/03/26 09:55:46;;;;;;;21.95;14.18;;;;;;;15.57;48.21;103182.19;7389194;19;20772;-58
2022/03/26 09:58:15;;;;;;;20.30;12.80;;;;;;;15.56;48.09;103182.22;7390453;19;20359;-56
2022/03/26 10:00:44;;;;;;;23.17;13.57;;;;;;;15.61;48.39;103179.44;7390525;19;20014;-59
2022/03/26 10:03:12;;;;;;;21.95;13.50;;;;;;;15.64;47.91;103179.34;7390473;19;20014;-58
2022/03/26 10:05:41;;;;;;;20.50;13.30;;;;;;;15.77;47.67;103172.81;7388815;19;20025;-54
2022/03/26 10:08:23;;;;;;;18.58;12.20;;;;;;;15.98;46.65;103181.09;7391780;19;20029;-55
2022/03/26 10:10:55;;;;;;;17.98;10.45;;;;;;;16.07;46.44;103178.16;7414711;19;20024;-61
2022/03/26 10:13:39;;;;;;;17.85;11.07;;;;;;;15.98;45.82;103179.28;7393676;19;20125;-58
2022/03/26 10:16:10;;;;;;;20.77;10.63;;;;;;;16.15;45.41;103173.50;7389495;19;20018;-59
2022/03/26 10:18:41;;;;;;;15.63;10.25;;;;;;;16.08;45.15;103171.97;7394082;19;20010;-58
2022/03/26 10:21:11;;;;;;;15.35;10.50;;;;;;;15.99;45.72;103164.28;7396852;19;20015;-58
2022/03/26 10:23:44;;;;;;;14.75;9.20;;;;;;;16.24;45.30;103165.28;7398738;19;20428;-58
2022/03/26 10:26:17;;;;;;;14.55;10.48;;;;;;;16.21;45.43;103156.59;7395503;19;20015;-59
2022/03/26 10:28:52;;;;;;;20.60;11.15;;;;;;;16.50;44.54;103160.09;7395368;19;20033;-59
2022/03/26 10:34:09;;;;;;;15.48;10.15;;;;;;;16.52;44.42;103156.50;7393832;19;20029;-56
2022/03/26 10:36:40;;;;;;;14.80;10.43;;;;;;;16.39;44.41;103150.72;7391879;19;20062;-59
2022/03/26 10:39:15;;;;;;;14.52;9.63;;;;;;;16.60;43.81;103157.09;7395895;19;20601;-60
2022/03/26 10:41:47;;;;;;;14.90;9.50;;;;;;;16.72;43.73;103154.97;7392747;19;20025;-58
2022/03/26 10:44:18;;;;;;;13.10;9.07;;;;;;;16.65;43.68;103146.38;7391777;19;20025;-56
2022/03/26 10:46:50;;;;;;;34.45;10.15;;;;;;;16.83;42.24;103150.19;7389065;19;20022;-57
2022/03/26 10:49:28;;;;;;;11.95;7.30;;;;;;;16.91;41.96;103152.63;7388924;19;20029;-59
2022/03/26 10:51:58;;;;;;;11.63;7.72;;;;;;;16.87;41.56;103148.31;7389868;19;20021;-56
2022/03/26 10:54:31;;;;;;;11.18;7.40;;;;;;;16.99;42.25;103145.25;7391772;19;20021;-58
2022/03/26 10:57:05;;;;;;;11.80;7.43;;;;;;;16.91;41.42;103139.38;7387851;19;20451;-58
2022/03/26 10:59:34;;;;;;;14.90;7.55;;;;;;;16.85;41.47;103137.75;7388933;19;20011;-58
2022/03/26 11:02:03;;;;;;;12.30;7.00;;;;;;;16.89;41.26;103144.72;7388691;19;20015;-57
2022/03/26 11:04:32;;;;;;;13.73;7.40;;;;;;;17.03;40.73;103138.09;7389089;19;20353;-58
2022/03/26 11:07:01;;;;;;;12.75;8.07;;;;;;;16.95;39.38;103139.22;7386091;19;20023;-60
2022/03/26 11:09:31;;;;;;;13.40;8.55;;;;;;;17.14;39.08;103140.38;7388174;19;20018;-58
2022/03/26 11:12:03;;;;;;;15.70;9.50;;;;;;;17.14;38.77;103135.06;7393637;19;20087;-58
2022/03/26 11:14:36;;;;;;;24.83;11.02;;;;;;;17.16;38.91;103130.56;7395502;19;20019;-58
2022/03/26 11:17:17;;;;;;;22.70;12.43;;;;;;;17.18;38.95;103132.25;7392828;19;20030;-59
2022/03/26 11:20:07;;;;;;;41.40;14.25;;;;;;;17.43;38.83;103123.41;7395451;19;20352;-58
2022/03/26 11:22:48;;;;;;;23.08;12.93;;;;;;;17.37;38.42;103118.34;7395625;19;20098;-58
2022/03/26 11:25:40;;;;;;;27.92;13.32;;;;;;;17.44;36.83;103128.66;7394904;19;20011;-58
2022/03/26 11:28:26;;;;;;;26.07;12.67;;;;;;;17.71;36.52;103127.69;7397692;19;20006;-59
2022/03/26 11:31:00;;;;;;;21.33;13.02;;;;;;;17.59;36.84;103121.06;7394627;19;20014;-59
2022/03/26 11:33:37;;;;;;;22.63;13.75;;;;;;;17.90;36.67;103122.56;7393543;19;20014;-59